sensor_id;sensor_type;location;lat;lon;timestamp;pressure;altitude;pressure_sealevel;temperature;humidity
46710;BME280;32442;51.514;-0.178;2022-10-30T00:01:12;101209.75;;;21.15;71.45
46710;BME280;32442;51.514;-0.178;2022-10-30T00:03:39;101213.06;;;21.17;71.61
46710;BME280;32442;51.514;-0.178;2022-10-30T00:06:06;101222.31;;;21.18;71.62
46710;BME280;32442;51.514;-0.178;2022-10-30T00:08:33;101225.13;;;21.18;71.41
46710;BME280;32442;51.514;-0.178;2022-10-30T00:13:30;101233.28;;;21.19;71.51
46710;BME280;32442;51.514;-0.178;2022-10-30T00:15:57;101240.56;;;21.20;71.47
46710;BME280;32442;51.514;-0.178;2022-10-30T00:18:24;101245.34;;;21.20;71.36
46710;BME280;32442;51.514;-0.178;2022-10-30T00:20:51;101256.25;;;21.21;71.73
46710;BME280;32442;51.514;-0.178;2022-10-30T00:23:17;101259.91;;;21.22;71.81
46710;BME280;32442;51.514;-0.178;2022-10-30T00:25:45;101251.47;;;21.22;71.64
46710;BME280;32442;51.514;-0.178;2022-10-30T00:28:12;101251.47;;;21.22;71.48
46710;BME280;32442;51.514;-0.178;2022-10-30T00:30:39;101245.84;;;21.22;71.68
46710;BME280;32442;51.514;-0.178;2022-10-30T00:33:06;101239.41;;;21.21;71.88
46710;BME280;32442;51.514;-0.178;2022-10-30T00:35:33;101224.53;;;21.21;71.53
46710;BME280;32442;51.514;-0.178;2022-10-30T00:38:00;101231.81;;;21.22;72.12
46710;BME280;32442;51.514;-0.178;2022-10-30T00:40:27;101228.50;;;21.20;72.18
46710;BME280;32442;51.514;-0.178;2022-10-30T00:42:54;101224.53;;;21.21;72.10
46710;BME280;32442;51.514;-0.178;2022-10-30T00:45:21;101218.09;;;21.20;72.55
46710;BME280;32442;51.514;-0.178;2022-10-30T00:50:21;101201.72;;;21.22;72.52
46710;BME280;32442;51.514;-0.178;2022-10-30T00:52:56;101196.44;;;21.21;72.24
46710;BME280;32442;51.514;-0.178;2022-10-30T00:55:26;101199.25;;;21.21;72.78
46710;BME280;32442;51.514;-0.178;2022-10-30T00:57:56;101205.69;;;21.21;72.38
46710;BME280;32442;51.514;-0.178;2022-10-30T01:00:23;101195.28;;;21.22;72.29
46710;BME280;32442;51.514;-0.178;2022-10-30T01:02:53;101195.28;;;21.22;72.63
46710;BME280;32442;51.514;-0.178;2022-10-30T01:05:21;101191.34;;;21.23;72.36
46710;BME280;32442;51.514;-0.178;2022-10-30T01:07:50;101198.09;;;21.22;72.92
46710;BME280;32442;51.514;-0.178;2022-10-30T01:10:17;101195.28;;;21.22;72.76
46710;BME280;32442;51.514;-0.178;2022-10-30T01:12:44;101184.88;;;21.22;72.67
46710;BME280;32442;51.514;-0.178;2022-10-30T01:15:12;101177.56;;;21.21;73.22
46710;BME280;32442;51.514;-0.178;2022-10-30T01:25:14;101174.47;;;21.23;73.25
46710;BME280;32442;51.514;-0.178;2022-10-30T01:37:50;101180.63;;;21.25;73.18
46710;BME280;32442;51.514;-0.178;2022-10-30T01:40:21;101178.97;;;21.24;73.33
46710;BME280;32442;51.514;-0.178;2022-10-30T01:57:44;101176.34;;;21.27;73.48
46710;BME280;32442;51.514;-0.178;2022-10-30T02:00:15;101177.81;;;21.25;73.52
46710;BME280;32442;51.514;-0.178;2022-10-30T02:02:42;101185.91;;;21.26;74.07
46710;BME280;32442;51.514;-0.178;2022-10-30T02:05:10;101193.22;;;21.27;73.62
46710;BME280;32442;51.514;-0.178;2022-10-30T02:07:39;101191.25;;;21.28;73.80
46710;BME280;32442;51.514;-0.178;2022-10-30T02:10:06;101190.13;;;21.29;73.49
46710;BME280;32442;51.514;-0.178;2022-10-30T02:12:33;101184.50;;;21.29;73.70
46710;BME280;32442;51.514;-0.178;2022-10-30T02:15:00;101179.16;;;21.27;73.50
46710;BME280;32442;51.514;-0.178;2022-10-30T02:17:27;101169.59;;;21.28;73.73
46710;BME280;32442;51.514;-0.178;2022-10-30T02:19:54;101165.66;;;21.29;73.89
46710;BME280;32442;51.514;-0.178;2022-10-30T02:22:21;101159.19;;;21.29;73.97
46710;BME280;32442;51.514;-0.178;2022-10-30T02:24:48;101159.19;;;21.29;73.85
46710;BME280;32442;51.514;-0.178;2022-10-30T02:27:15;101178.03;;;21.28;74.22
46710;BME280;32442;51.514;-0.178;2022-10-30T02:29:42;101182.53;;;21.29;73.97
46710;BME280;32442;51.514;-0.178;2022-10-30T02:32:08;101174.09;;;21.29;73.79
46710;BME280;32442;51.514;-0.178;2022-10-30T02:34:35;101174.09;;;21.29;73.64
46710;BME280;32442;51.514;-0.178;2022-10-30T02:37:02;101162.00;;;21.29;74.10
46710;BME280;32442;51.514;-0.178;2022-10-30T02:39:29;101167.63;;;21.29;73.97
46710;BME280;32442;51.514;-0.178;2022-10-30T02:41:56;101169.31;;;21.30;74.13
46710;BME280;32442;51.514;-0.178;2022-10-30T02:44:23;101166.50;;;21.30;73.99
46710;BME280;32442;51.514;-0.178;2022-10-30T02:46:50;101173.25;;;21.29;73.75
46710;BME280;32442;51.514;-0.178;2022-10-30T02:49:17;101174.09;;;21.29;74.26
46710;BME280;32442;51.514;-0.178;2022-10-30T02:51:43;101170.44;;;21.29;74.26
46710;BME280;32442;51.514;-0.178;2022-10-30T02:54:10;101154.41;;;21.29;73.89
46710;BME280;32442;51.514;-0.178;2022-10-30T02:56:39;101154.41;;;21.29;73.85
46710;BME280;32442;51.514;-0.178;2022-10-30T02:59:06;101151.59;;;21.29;74.03
46710;BME280;32442;51.514;-0.178;2022-10-30T03:01:33;101152.44;;;21.30;74.35
46710;BME280;32442;51.514;-0.178;2022-10-30T03:04:00;101151.59;;;21.29;74.07
46710;BME280;32442;51.514;-0.178;2022-10-30T03:06:26;101153.25;;;21.30;74.46
46710;BME280;32442;51.514;-0.178;2022-10-30T03:08:53;101163.69;;;21.30;74.72
46710;BME280;32442;51.514;-0.178;2022-10-30T03:11:23;101158.06;;;21.30;74.38
46710;BME280;32442;51.514;-0.178;2022-10-30T03:13:50;101158.06;;;21.30;74.13
46710;BME280;32442;51.514;-0.178;2022-10-30T03:16:19;101149.63;;;21.30;74.73
46710;BME280;32442;51.514;-0.178;2022-10-30T03:18:47;101144.81;;;21.30;74.51
46710;BME280;32442;51.514;-0.178;2022-10-30T03:21:15;101148.47;;;21.31;74.71
46710;BME280;32442;51.514;-0.178;2022-10-30T03:23:42;101152.44;;;21.30;74.86
46710;BME280;32442;51.514;-0.178;2022-10-30T03:26:09;101154.09;;;21.31;74.54
46710;BME280;32442;51.514;-0.178;2022-10-30T03:28:36;101156.91;;;21.31;75.09
46710;BME280;32442;51.514;-0.178;2022-10-30T03:31:04;101173.75;;;21.31;74.79
46710;BME280;32442;51.514;-0.178;2022-10-30T03:33:32;101168.13;;;21.31;75.44
46710;BME280;32442;51.514;-0.178;2022-10-30T03:35:59;101170.94;;;21.31;75.41
46710;BME280;32442;51.514;-0.178;2022-10-30T03:38:26;101167.28;;;21.30;75.60
46710;BME280;32442;51.514;-0.178;2022-10-30T03:40:53;101166.16;;;21.32;75.03
46710;BME280;32442;51.514;-0.178;2022-10-30T03:43:20;101182.19;;;21.31;74.88
46710;BME280;32442;51.514;-0.178;2022-10-30T03:45:48;101185.00;;;21.31;75.27
46710;BME280;32442;51.514;-0.178;2022-10-30T03:48:15;101191.47;;;21.32;75.45
46710;BME280;32442;51.514;-0.178;2022-10-30T03:50:43;101188.66;;;21.32;75.55
46710;BME280;32442;51.514;-0.178;2022-10-30T03:53:10;101179.09;;;21.33;74.97
46710;BME280;32442;51.514;-0.178;2022-10-30T03:55:37;101172.63;;;21.32;75.52
46710;BME280;32442;51.514;-0.178;2022-10-30T03:58:04;101164.19;;;21.32;75.54
46710;BME280;32442;51.514;-0.178;2022-10-30T04:00:32;101168.97;;;21.32;75.40
46710;BME280;32442;51.514;-0.178;2022-10-30T04:02:59;101157.72;;;21.32;75.25
46710;BME280;32442;51.514;-0.178;2022-10-30T04:05:27;101150.13;;;21.32;75.03
46710;BME280;32442;51.514;-0.178;2022-10-30T04:07:55;101156.59;;;21.33;74.94
46710;BME280;32442;51.514;-0.178;2022-10-30T04:10:22;101162.22;;;21.33;75.55
46710;BME280;32442;51.514;-0.178;2022-10-30T04:12:49;101165.31;;;21.31;75.42
46710;BME280;32442;51.514;-0.178;2022-10-30T04:15:17;101168.97;;;21.32;75.03
46710;BME280;32442;51.514;-0.178;2022-10-30T04:20:14;101161.69;;;21.30;75.49
46710;BME280;32442;51.514;-0.178;2022-10-30T04:22:40;101164.50;;;21.30;75.36
46710;BME280;32442;51.514;-0.178;2022-10-30T04:25:08;101158.88;;;21.30;75.82
46710;BME280;32442;51.514;-0.178;2022-10-30T04:30:05;101173.75;;;21.31;75.60
46710;BME280;32442;51.514;-0.178;2022-10-30T04:32:32;101173.75;;;21.31;76.04
46710;BME280;32442;51.514;-0.178;2022-10-30T04:34:59;101173.75;;;21.31;76.22
46710;BME280;32442;51.514;-0.178;2022-10-30T04:37:26;101167.28;;;21.30;75.88
46710;BME280;32442;51.514;-0.178;2022-10-30T04:39:52;101161.69;;;21.30;75.89
46710;BME280;32442;51.514;-0.178;2022-10-30T04:42:19;101155.25;;;21.30;75.75
46710;BME280;32442;51.514;-0.178;2022-10-30T04:44:46;101145.66;;;21.31;75.81
46710;BME280;32442;51.514;-0.178;2022-10-30T04:47:13;101140.03;;;21.31;76.15
46710;BME280;32442;51.514;-0.178;2022-10-30T04:49:42;101144.00;;;21.30;75.69
46710;BME280;32442;51.514;-0.178;2022-10-30T04:52:09;101139.53;;;21.29;76.04
46710;BME280;32442;51.514;-0.178;2022-10-30T04:54:36;101139.19;;;21.30;75.81
46710;BME280;32442;51.514;-0.178;2022-10-30T04:57:03;101134.41;;;21.31;75.65
46710;BME280;32442;51.514;-0.178;2022-10-30T04:59:30;101135.25;;;21.32;76.07
46710;BME280;32442;51.514;-0.178;2022-10-30T05:01:56;101137.22;;;21.31;75.99
46710;BME280;32442;51.514;-0.178;2022-10-30T05:04:24;101137.22;;;21.31;76.04
46710;BME280;32442;51.514;-0.178;2022-10-30T05:06:51;101137.22;;;21.31;75.71
46710;BME280;32442;51.514;-0.178;2022-10-30T05:09:17;101129.13;;;21.29;76.24
46710;BME280;32442;51.514;-0.178;2022-10-30T05:11:44;101133.56;;;21.30;75.59
46710;BME280;32442;51.514;-0.178;2022-10-30T05:14:11;101135.25;;;21.32;75.82
46710;BME280;32442;51.514;-0.178;2022-10-30T05:16:38;101140.88;;;21.32;75.50
46710;BME280;32442;51.514;-0.178;2022-10-30T05:19:05;101129.63;;;21.32;75.48
46710;BME280;32442;51.514;-0.178;2022-10-30T05:21:32;101132.44;;;21.32;75.98
46710;BME280;32442;51.514;-0.178;2022-10-30T05:23:59;101125.69;;;21.33;75.98
46710;BME280;32442;51.514;-0.178;2022-10-30T05:26:26;101140.03;;;21.31;76.05
46710;BME280;32442;51.514;-0.178;2022-10-30T05:28:53;101136.38;;;21.30;75.83
46710;BME280;32442;51.514;-0.178;2022-10-30T05:31:20;101135.25;;;21.32;75.69
46710;BME280;32442;51.514;-0.178;2022-10-30T05:33:47;101146.50;;;21.32;75.80
46710;BME280;32442;51.514;-0.178;2022-10-30T05:36:13;101140.38;;;21.29;75.74
46710;BME280;32442;51.514;-0.178;2022-10-30T05:38:40;101137.22;;;21.31;75.53
46710;BME280;32442;51.514;-0.178;2022-10-30T05:41:07;101138.91;;;21.32;75.51
46710;BME280;32442;51.514;-0.178;2022-10-30T05:43:34;101142.84;;;21.31;75.67
46710;BME280;32442;51.514;-0.178;2022-10-30T05:46:01;101144.81;;;21.30;75.52
46710;BME280;32442;51.514;-0.178;2022-10-30T05:48:28;101148.47;;;21.31;75.18
46710;BME280;32442;51.514;-0.178;2022-10-30T05:50:55;101159.72;;;21.31;75.77
46710;BME280;32442;51.514;-0.178;2022-10-30T05:53:22;101162.84;;;21.29;75.59
46710;BME280;32442;51.514;-0.178;2022-10-30T05:55:49;101162.00;;;21.29;75.84
46710;BME280;32442;51.514;-0.178;2022-10-30T05:58:16;101146.81;;;21.30;75.62
46710;BME280;32442;51.514;-0.178;2022-10-30T06:00:43;101139.53;;;21.29;75.50
46710;BME280;32442;51.514;-0.178;2022-10-30T06:03:10;101154.09;;;21.31;75.64
46710;BME280;32442;51.514;-0.178;2022-10-30T06:05:38;101155.84;;;21.27;73.31
46710;BME280;32442;51.514;-0.178;2022-10-30T06:08:05;101157.31;;;21.24;73.35
46710;BME280;32442;51.514;-0.178;2022-10-30T06:10:32;101165.75;;;21.24;73.21
46710;BME280;32442;51.514;-0.178;2022-10-30T06:13:00;101158.44;;;21.23;73.85
46710;BME280;32442;51.514;-0.178;2022-10-30T06:15:28;101162.09;;;21.24;73.40
46710;BME280;32442;51.514;-0.178;2022-10-30T06:17:55;101157.59;;;21.23;73.90
46710;BME280;32442;51.514;-0.178;2022-10-30T06:20:24;101156.78;;;21.22;73.79
46710;BME280;32442;51.514;-0.178;2022-10-30T06:25:21;101156.78;;;21.22;74.00
46710;BME280;32442;51.514;-0.178;2022-10-30T06:27:49;101149.47;;;21.21;73.74
46710;BME280;32442;51.514;-0.178;2022-10-30T06:30:15;101158.75;;;21.22;74.24
46710;BME280;32442;51.514;-0.178;2022-10-30T06:32:42;101155.94;;;21.22;74.18
46710;BME280;32442;51.514;-0.178;2022-10-30T06:35:09;101147.50;;;21.22;74.16
46710;BME280;32442;51.514;-0.178;2022-10-30T06:37:36;101146.66;;;21.21;73.94
46710;BME280;32442;51.514;-0.178;2022-10-30T06:40:06;101154.81;;;21.23;74.18
46710;BME280;32442;51.514;-0.178;2022-10-30T06:42:40;101160.41;;;21.23;74.16
46710;BME280;32442;51.514;-0.178;2022-10-30T06:45:07;101157.59;;;21.23;73.99
46710;BME280;32442;51.514;-0.178;2022-10-30T06:47:34;101160.72;;;21.21;73.85
46710;BME280;32442;51.514;-0.178;2022-10-30T06:50:02;101164.38;;;21.22;74.16
46710;BME280;32442;51.514;-0.178;2022-10-30T06:52:28;101155.09;;;21.21;73.95
46710;BME280;32442;51.514;-0.178;2022-10-30T06:54:55;101153.44;;;21.20;74.42
46710;BME280;32442;51.514;-0.178;2022-10-30T06:57:22;101160.72;;;21.21;73.92
46710;BME280;32442;51.514;-0.178;2022-10-30T06:59:49;101167.16;;;21.22;74.50
46710;BME280;32442;51.514;-0.178;2022-10-30T07:02:16;101168.34;;;21.21;74.20
46710;BME280;32442;51.514;-0.178;2022-10-30T07:04:43;101173.97;;;21.21;74.52
46710;BME280;32442;51.514;-0.178;2022-10-30T07:07:11;101176.78;;;21.21;74.51
46710;BME280;32442;51.514;-0.178;2022-10-30T07:09:38;101180.72;;;21.20;74.53
46710;BME280;32442;51.514;-0.178;2022-10-30T07:12:05;101181.56;;;21.20;74.59
46710;BME280;32442;51.514;-0.178;2022-10-30T07:14:33;101191.97;;;21.20;74.66
46710;BME280;32442;51.514;-0.178;2022-10-30T07:16:59;101189.97;;;21.20;74.28
46710;BME280;32442;51.514;-0.178;2022-10-30T07:19:26;101191.13;;;21.19;74.61
46710;BME280;32442;51.514;-0.178;2022-10-30T07:21:53;101196.75;;;21.19;74.48
46710;BME280;32442;51.514;-0.178;2022-10-30T07:24:20;101196.75;;;21.19;74.67
46710;BME280;32442;51.514;-0.178;2022-10-30T07:26:47;101193.94;;;21.19;74.99
46710;BME280;32442;51.514;-0.178;2022-10-30T07:29:14;101182.69;;;21.19;74.97
46710;BME280;32442;51.514;-0.178;2022-10-30T07:31:41;101179.03;;;21.19;74.74
46710;BME280;32442;51.514;-0.178;2022-10-30T07:34:26;101152.06;;;21.18;75.05
46710;BME280;32442;51.514;-0.178;2022-10-30T07:36:53;101156.56;;;21.19;74.88
46710;BME280;32442;51.514;-0.178;2022-10-30T07:39:20;101156.56;;;21.19;75.01
46710;BME280;32442;51.514;-0.178;2022-10-30T07:41:48;101162.19;;;21.19;75.31
46710;BME280;32442;51.514;-0.178;2022-10-30T07:44:16;101154.03;;;21.17;75.03
46710;BME280;32442;51.514;-0.178;2022-10-30T07:46:42;101162.19;;;21.19;75.11
46710;BME280;32442;51.514;-0.178;2022-10-30T07:49:09;101171.44;;;21.19;74.93
46710;BME280;32442;51.514;-0.178;2022-10-30T07:51:36;101172.59;;;21.18;75.08
46710;BME280;32442;51.514;-0.178;2022-10-30T07:54:03;101176.22;;;21.19;75.66
46710;BME280;32442;51.514;-0.178;2022-10-30T07:56:30;101179.03;;;21.19;74.99
46710;BME280;32442;51.514;-0.178;2022-10-30T07:58:57;101192.78;;;21.20;75.12
46710;BME280;32442;51.514;-0.178;2022-10-30T08:01:24;101193.63;;;21.21;74.98
46710;BME280;32442;51.514;-0.178;2022-10-30T08:03:51;101192.78;;;21.20;74.92
46710;BME280;32442;51.514;-0.178;2022-10-30T08:06:17;101183.19;;;21.21;74.96
46710;BME280;32442;51.514;-0.178;2022-10-30T08:08:51;101170.53;;;21.24;76.15
46710;BME280;32442;51.514;-0.178;2022-10-30T08:11:18;101172.72;;;21.27;77.17
46710;BME280;32442;51.514;-0.178;2022-10-30T08:13:45;101170.09;;;21.30;77.64
46710;BME280;32442;51.514;-0.178;2022-10-30T08:16:12;101177.09;;;21.33;78.34
46710;BME280;32442;51.514;-0.178;2022-10-30T08:18:38;101183.78;;;21.37;78.47
46710;BME280;32442;51.514;-0.178;2022-10-30T08:21:08;101195.22;;;21.41;78.87
46710;BME280;32442;51.514;-0.178;2022-10-30T08:23:35;101201.06;;;21.44;78.49
46710;BME280;32442;51.514;-0.178;2022-10-30T08:26:02;101179.66;;;21.48;78.33
46710;BME280;32442;51.514;-0.178;2022-10-30T08:28:29;101185.78;;;21.50;78.61
46710;BME280;32442;51.514;-0.178;2022-10-30T08:30:58;101178.41;;;21.54;78.47
46710;BME280;32442;51.514;-0.178;2022-10-30T08:33:26;101183.41;;;21.57;78.28
46710;BME280;32442;51.514;-0.178;2022-10-30T08:35:53;101183.09;;;21.59;78.42
46710;BME280;32442;51.514;-0.178;2022-10-30T08:38:22;101192.91;;;21.61;77.81
46710;BME280;32442;51.514;-0.178;2022-10-30T08:40:49;101188.31;;;21.65;77.94
46710;BME280;32442;51.514;-0.178;2022-10-30T08:43:16;101185.19;;;21.67;77.62
46710;BME280;32442;51.514;-0.178;2022-10-30T08:45:43;101182.59;;;21.70;77.44
46710;BME280;32442;51.514;-0.178;2022-10-30T08:48:11;101174.66;;;21.72;77.50
46710;BME280;32442;51.514;-0.178;2022-10-30T08:50:39;101168.75;;;21.74;77.23
46710;BME280;32442;51.514;-0.178;2022-10-30T08:53:06;101178.53;;;21.77;77.40
46710;BME280;32442;51.514;-0.178;2022-10-30T08:55:34;101191.16;;;21.79;76.90
46710;BME280;32442;51.514;-0.178;2022-10-30T08:58:01;101180.41;;;21.81;77.03
46710;BME280;32442;51.514;-0.178;2022-10-30T09:00:28;101168.84;;;21.83;76.70
46710;BME280;32442;51.514;-0.178;2022-10-30T09:02:55;101164.06;;;21.83;76.73
46710;BME280;32442;51.514;-0.178;2022-10-30T09:05:23;101187.06;;;21.85;76.92
46710;BME280;32442;51.514;-0.178;2022-10-30T09:07:54;101178.63;;;21.85;76.75
46710;BME280;32442;51.514;-0.178;2022-10-30T09:10:21;101152.19;;;21.86;76.42
46710;BME280;32442;51.514;-0.178;2022-10-30T09:12:52;101134.16;;;21.87;76.48
46710;BME280;32442;51.514;-0.178;2022-10-30T09:15:19;101122.91;;;21.87;76.17
46710;BME280;32442;51.514;-0.178;2022-10-30T09:17:46;101136.66;;;21.89;76.10
46710;BME280;32442;51.514;-0.178;2022-10-30T09:20:13;101133.84;;;21.89;75.71
46710;BME280;32442;51.514;-0.178;2022-10-30T09:22:40;101114.16;;;21.89;76.02
46710;BME280;32442;51.514;-0.178;2022-10-30T09:25:08;101120.63;;;21.89;75.61
46710;BME280;32442;51.514;-0.178;2022-10-30T09:27:36;101162.50;;;21.91;75.38
46710;BME280;32442;51.514;-0.178;2022-10-30T09:30:03;101186.13;;;21.90;75.55
46710;BME280;32442;51.514;-0.178;2022-10-30T09:32:30;101216.50;;;21.93;75.37
46710;BME280;32442;51.514;-0.178;2022-10-30T09:34:57;101248.56;;;21.92;75.03
46710;BME280;32442;51.514;-0.178;2022-10-30T09:37:24;101245.47;;;21.93;75.13
46710;BME280;32442;51.514;-0.178;2022-10-30T09:39:52;101263.19;;;21.94;75.16
46710;BME280;32442;51.514;-0.178;2022-10-30T10:04:56;101199.06;;;21.91;74.71
46710;BME280;32442;51.514;-0.178;2022-10-30T10:09:53;101210.31;;;21.91;75.06
46710;BME280;32442;51.514;-0.178;2022-10-30T10:12:27;101210.78;;;21.98;74.32
46710;BME280;32442;51.514;-0.178;2022-10-30T10:14:56;101202.34;;;21.98;73.89
46710;BME280;32442;51.514;-0.178;2022-10-30T10:17:26;101205.47;;;21.96;72.79
46710;BME280;32442;51.514;-0.178;2022-10-30T10:19:57;101202.94;;;21.95;72.07
46710;BME280;32442;51.514;-0.178;2022-10-30T10:22:26;101206.59;;;21.95;72.25
46710;BME280;32442;51.514;-0.178;2022-10-30T10:24:58;101215.38;;;21.94;71.71
46710;BME280;32442;51.514;-0.178;2022-10-30T10:42:28;101222.13;;;21.93;68.31
46710;BME280;32442;51.514;-0.178;2022-10-30T10:55:02;101229.88;;;21.36;61.73
46710;BME280;32442;51.514;-0.178;2022-10-30T10:57:31;101216.91;;;21.21;62.12
46710;BME280;32442;51.514;-0.178;2022-10-30T11:00:01;101207.47;;;21.12;61.51
46710;BME280;32442;51.514;-0.178;2022-10-30T11:04:59;101228.56;;;20.96;61.63
46710;BME280;32442;51.514;-0.178;2022-10-30T11:07:29;101223.22;;;20.95;62.56
46710;BME280;32442;51.514;-0.178;2022-10-30T11:09:57;101223.22;;;20.95;61.91
46710;BME280;32442;51.514;-0.178;2022-10-30T11:14:57;101220.97;;;20.78;62.25
46710;BME280;32442;51.514;-0.178;2022-10-30T11:17:31;101231.50;;;20.67;62.12
46710;BME280;32442;51.514;-0.178;2022-10-30T11:20:02;101225.28;;;20.70;62.94
46710;BME280;32442;51.514;-0.178;2022-10-30T11:22:37;101222.72;;;20.74;63.16
46710;BME280;32442;51.514;-0.178;2022-10-30T11:25:16;101238.78;;;20.68;62.99
46710;BME280;32442;51.514;-0.178;2022-10-30T11:27:45;101222.78;;;20.69;63.12
46710;BME280;32442;51.514;-0.178;2022-10-30T11:32:43;101216.81;;;20.75;63.39
46710;BME280;32442;51.514;-0.178;2022-10-30T11:35:12;101218.69;;;20.80;63.43
46710;BME280;32442;51.514;-0.178;2022-10-30T11:37:40;101216.69;;;20.80;63.59
46710;BME280;32442;51.514;-0.178;2022-10-30T11:45:11;101205.63;;;20.89;64.04
46710;BME280;32442;51.514;-0.178;2022-10-30T11:47:40;101205.53;;;20.94;63.88
46710;BME280;32442;51.514;-0.178;2022-10-30T11:52:38;101203.25;;;20.96;63.71
46710;BME280;32442;51.514;-0.178;2022-10-30T11:55:09;101214.50;;;20.96;63.54
46710;BME280;32442;51.514;-0.178;2022-10-30T11:57:40;101208.81;;;21.01;63.78
46710;BME280;32442;51.514;-0.178;2022-10-30T12:02:40;101201.22;;;21.02;63.73
46710;BME280;32442;51.514;-0.178;2022-10-30T12:07:37;101204.03;;;21.02;63.52
46710;BME280;32442;51.514;-0.178;2022-10-30T12:10:04;101201.22;;;21.02;63.28
46710;BME280;32442;51.514;-0.178;2022-10-30T12:15:07;101197.78;;;21.05;63.17
46710;BME280;32442;51.514;-0.178;2022-10-30T12:17:34;101202.06;;;21.02;63.51
46710;BME280;32442;51.514;-0.178;2022-10-30T12:20:02;101202.28;;;21.06;63.69
46710;BME280;32442;51.514;-0.178;2022-10-30T12:22:31;101195.81;;;21.05;63.80
46710;BME280;32442;51.514;-0.178;2022-10-30T12:24:58;101197.16;;;21.08;63.83
46710;BME280;32442;51.514;-0.178;2022-10-30T12:27:27;101201.34;;;21.10;64.05
46710;BME280;32442;51.514;-0.178;2022-10-30T12:32:37;101200.69;;;21.00;63.25
46710;BME280;32442;51.514;-0.178;2022-10-30T12:37:38;101196.88;;;21.09;64.39
46710;BME280;32442;51.514;-0.178;2022-10-30T12:42:36;101197.03;;;20.99;63.44
46710;BME280;32442;51.514;-0.178;2022-10-30T12:45:07;101187.16;;;21.02;63.38
46710;BME280;32442;51.514;-0.178;2022-10-30T12:52:40;101186.47;;;21.10;63.97
46710;BME280;32442;51.514;-0.178;2022-10-30T12:55:15;101181.38;;;21.12;64.22
46710;BME280;32442;51.514;-0.178;2022-10-30T13:00:15;101183.59;;;21.15;64.11
46710;BME280;32442;51.514;-0.178;2022-10-30T13:07:44;101181.97;;;21.27;64.57
46710;BME280;32442;51.514;-0.178;2022-10-30T13:12:45;101184.06;;;21.36;65.42
46710;BME280;32442;51.514;-0.178;2022-10-30T13:17:43;101192.88;;;21.48;66.26
46710;BME280;32442;51.514;-0.178;2022-10-30T13:20:11;101196.19;;;21.50;66.23
46710;BME280;32442;51.514;-0.178;2022-10-30T13:22:42;101190.47;;;21.55;68.35
46710;BME280;32442;51.514;-0.178;2022-10-30T13:37:43;101174.75;;;21.67;70.56
46710;BME280;32442;51.514;-0.178;2022-10-30T13:52:43;101176.56;;;21.91;79.17
46710;BME280;32442;51.514;-0.178;2022-10-30T13:55:15;101184.50;;;21.89;74.14
46710;BME280;32442;51.514;-0.178;2022-10-30T14:00:15;101164.59;;;21.99;76.96
46710;BME280;32442;51.514;-0.178;2022-10-30T14:10:14;101161.06;;;22.07;73.17
46710;BME280;32442;51.514;-0.178;2022-10-30T14:23:04;101178.91;;;22.16;69.47
46710;BME280;32442;51.514;-0.178;2022-10-30T14:25:32;101163.03;;;22.20;68.03
46710;BME280;32442;51.514;-0.178;2022-10-30T14:27:59;101187.22;;;22.21;66.08
46710;BME280;32442;51.514;-0.178;2022-10-30T14:30:27;101175.03;;;22.26;68.01
46710;BME280;32442;51.514;-0.178;2022-10-30T14:32:54;101181.47;;;22.26;66.04
46710;BME280;32442;51.514;-0.178;2022-10-30T14:42:50;101200.34;;;22.39;67.78
46710;BME280;32442;51.514;-0.178;2022-10-30T14:55:19;101191.47;;;22.32;60.97
46710;BME280;32442;51.514;-0.178;2022-10-30T15:02:52;101207.53;;;22.18;58.66
46710;BME280;32442;51.514;-0.178;2022-10-30T15:07:54;101209.41;;;22.09;58.27
46710;BME280;32442;51.514;-0.178;2022-10-30T15:10:27;101210.06;;;22.06;59.00
46710;BME280;32442;51.514;-0.178;2022-10-30T15:15:27;101207.75;;;22.08;59.38
46710;BME280;32442;51.514;-0.178;2022-10-30T15:17:55;101215.38;;;22.07;59.56
46710;BME280;32442;51.514;-0.178;2022-10-30T15:20:26;101227.44;;;22.08;59.88
46710;BME280;32442;51.514;-0.178;2022-10-30T15:22:54;101216.72;;;22.10;59.81
46710;BME280;32442;51.514;-0.178;2022-10-30T15:25:23;101222.34;;;22.10;59.91
46710;BME280;32442;51.514;-0.178;2022-10-30T15:27:53;101218.41;;;22.11;60.11
46710;BME280;32442;51.514;-0.178;2022-10-30T15:30:23;101220.06;;;22.12;60.00
46710;BME280;32442;51.514;-0.178;2022-10-30T15:32:50;101226.50;;;22.12;60.42
46710;BME280;32442;51.514;-0.178;2022-10-30T15:40:16;101232.13;;;22.12;60.82
46710;BME280;32442;51.514;-0.178;2022-10-30T15:42:43;101229.00;;;22.14;60.55
46710;BME280;32442;51.514;-0.178;2022-10-30T15:47:44;101237.47;;;22.14;60.73
46710;BME280;32442;51.514;-0.178;2022-10-30T15:50:12;101254.66;;;22.12;61.09
46710;BME280;32442;51.514;-0.178;2022-10-30T15:52:39;101253.94;;;22.07;61.32
46710;BME280;32442;51.514;-0.178;2022-10-30T15:55:08;101251.13;;;22.07;61.82
46710;BME280;32442;51.514;-0.178;2022-10-30T15:57:40;101253.69;;;22.03;61.52
46710;BME280;32442;51.514;-0.178;2022-10-30T16:00:29;101254.25;;;22.05;62.10
46710;BME280;32442;51.514;-0.178;2022-10-30T16:02:58;101256.97;;;22.10;61.95
46710;BME280;32442;51.514;-0.178;2022-10-30T16:05:26;101257.25;;;22.09;62.36
46710;BME280;32442;51.514;-0.178;2022-10-30T16:07:54;101249.16;;;22.07;62.57
46710;BME280;32442;51.514;-0.178;2022-10-30T16:10:22;101259.88;;;22.05;62.85
46710;BME280;32442;51.514;-0.178;2022-10-30T16:12:50;101258.72;;;22.06;62.94
46710;BME280;32442;51.514;-0.178;2022-10-30T16:17:55;101258.19;;;22.04;62.73
46710;BME280;32442;51.514;-0.178;2022-10-30T16:20:25;101261.34;;;22.03;63.19
46710;BME280;32442;51.514;-0.178;2022-10-30T16:22:52;101264.66;;;22.05;63.03
46710;BME280;32442;51.514;-0.178;2022-10-30T16:25:19;101263.81;;;22.04;62.85
46710;BME280;32442;51.514;-0.178;2022-10-30T16:27:47;101266.34;;;22.06;63.08
46710;BME280;32442;51.514;-0.178;2022-10-30T16:30:14;101264.34;;;22.06;63.14